createdAt,value
2023-05-12T00:02:12.526Z,101022.63
2023-05-12T00:04:40.786Z,101027.56
2023-05-12T00:07:08.984Z,101024.81
2023-05-12T00:09:37.073Z,101022.44
2023-05-12T00:12:05.660Z,101018.41
2023-05-12T00:14:33.511Z,101015.00
2023-05-12T00:17:01.447Z,101016.81
2023-05-12T00:19:30.861Z,101014.50
2023-05-12T00:21:58.712Z,101025.06
2023-05-12T00:24:26.822Z,101022.66
2023-05-12T00:26:55.093Z,101016.97
2023-05-12T00:29:22.917Z,101016.19
2023-05-12T00:31:50.838Z,101023.22
2023-05-12T00:34:18.797Z,101021.50
2023-05-12T00:36:48.012Z,101024.97
2023-05-12T00:39:16.173Z,101017.84
2023-05-12T00:41:44.525Z,101025.16
2023-05-12T00:44:12.490Z,101027.50
2023-05-12T00:46:40.719Z,101025.09
2023-05-12T00:49:08.874Z,101022.63
2023-05-12T00:51:37.230Z,101024.50
2023-05-12T00:54:06.957Z,101026.47
2023-05-12T00:56:39.363Z,101032.69
2023-05-12T00:59:09.275Z,101032.44
2023-05-12T01:01:41.144Z,101025.31
2023-05-12T01:04:09.591Z,101037.63
2023-05-12T01:06:44.519Z,101040.59
2023-05-12T01:09:15.121Z,101043.69
2023-05-12T01:11:43.254Z,101039.53
2023-05-12T01:14:11.204Z,101039.53
2023-05-12T01:16:43.808Z,101036.25
2023-05-12T01:19:20.677Z,101041.25
2023-05-12T01:21:48.692Z,101037.84
2023-05-12T01:24:21.751Z,101032.81
2023-05-12T01:26:51.229Z,101035.25
2023-05-12T01:29:20.021Z,101031.44
2023-05-12T01:31:49.326Z,101032.53
2023-05-12T01:34:18.633Z,101034.34
2023-05-12T01:36:49.899Z,101037.03
2023-05-12T01:39:17.984Z,101041.50
2023-05-12T01:41:45.971Z,101041.06
2023-05-12T01:44:15.567Z,101042.25
2023-05-12T01:46:43.574Z,101043.66
2023-05-12T01:49:12.694Z,101050.19
2023-05-12T01:51:40.875Z,101055.22
2023-05-12T01:54:08.823Z,101045.84
2023-05-12T01:56:39.344Z,101048.22
2023-05-12T01:59:07.650Z,101049.72
2023-05-12T02:01:37.585Z,101050.06
2023-05-12T02:04:08.844Z,101062.13
2023-05-12T02:06:38.327Z,101058.81
2023-05-12T02:09:06.685Z,101058.59
2023-05-12T02:11:34.653Z,101066.09
2023-05-12T02:14:03.124Z,101065.91
2023-05-12T02:16:34.935Z,101069.72
2023-05-12T02:19:04.578Z,101070.47
2023-05-12T02:21:33.602Z,101065.78
2023-05-12T02:24:01.870Z,101061.53
2023-05-12T02:26:29.949Z,101066.56
2023-05-12T02:28:57.889Z,101065.28
2023-05-12T02:31:26.052Z,101070.50
2023-05-12T02:33:54.078Z,101069.44
2023-05-12T02:36:23.476Z,101071.28
2023-05-12T02:38:51.498Z,101071.94
2023-05-12T02:41:19.609Z,101069.97
2023-05-12T02:43:47.817Z,101060.38
2023-05-12T02:46:16.214Z,101061.06
2023-05-12T02:48:44.430Z,101060.88
2023-05-12T02:51:12.614Z,101059.00
2023-05-12T02:53:42.210Z,101058.44
2023-05-12T02:56:10.207Z,101039.94
2023-05-12T02:58:38.066Z,101049.44
2023-05-12T03:01:11.135Z,101050.09
2023-05-12T03:03:40.498Z,101053.59
2023-05-12T03:06:09.565Z,101058.38
2023-05-12T03:08:37.858Z,101058.03
2023-05-12T03:11:07.455Z,101062.75
2023-05-12T03:13:35.343Z,101067.72
2023-05-12T03:16:03.376Z,101066.81
2023-05-12T03:18:31.691Z,101068.47
2023-05-12T03:20:59.762Z,101072.13
2023-05-12T03:23:27.937Z,101065.03
2023-05-12T03:25:56.578Z,101069.47
2023-05-12T03:28:26.193Z,101068.75
2023-05-12T03:30:55.011Z,101067.44
2023-05-12T03:33:25.961Z,101065.94
2023-05-12T03:35:54.771Z,101071.53
2023-05-12T03:38:24.450Z,101067.44
2023-05-12T03:40:53.321Z,101073.97
2023-05-12T03:43:21.969Z,101069.09
2023-05-12T03:45:51.473Z,101074.28
2023-05-12T03:48:19.406Z,101072.50
2023-05-12T03:50:47.380Z,101067.91
2023-05-12T03:53:16.126Z,101065.06
2023-05-12T03:55:43.975Z,101067.38
2023-05-12T03:58:11.867Z,101072.66
2023-05-12T04:00:39.777Z,101070.16
2023-05-12T04:03:09.471Z,101065.50
2023-05-12T04:05:39.455Z,101074.22
2023-05-12T04:08:07.354Z,101079.09
2023-05-12T04:10:40.046Z,101086.91
2023-05-12T04:13:08.349Z,101099.13
2023-05-12T04:15:36.517Z,101098.47
2023-05-12T04:18:05.039Z,101103.81
2023-05-12T04:20:34.256Z,101105.75
2023-05-12T04:23:02.445Z,101115.19
2023-05-12T04:25:30.493Z,101109.22
2023-05-12T04:27:58.388Z,101121.56
2023-05-12T04:30:26.341Z,101114.63
2023-05-12T04:32:54.561Z,101109.88
2023-05-12T04:35:23.249Z,101116.78
2023-05-12T04:37:52.828Z,101120.47
2023-05-12T04:40:21.259Z,101124.94
2023-05-12T04:42:49.619Z,101121.16
2023-05-12T04:45:18.521Z,101132.59
2023-05-12T04:47:47.019Z,101134.03
2023-05-12T04:50:15.305Z,101134.34
2023-05-12T04:52:43.227Z,101143.44
2023-05-12T04:55:12.767Z,101133.03
2023-05-12T04:57:41.613Z,101134.31
2023-05-12T05:00:12.564Z,101141.78
2023-05-12T05:02:41.406Z,101148.19
2023-05-12T05:05:10.851Z,101143.22
2023-05-12T05:07:39.076Z,101148.41
2023-05-12T05:10:08.427Z,101147.75
2023-05-12T05:12:37.882Z,101156.72
2023-05-12T05:15:07.595Z,101158.34
2023-05-12T05:17:35.774Z,101157.78
2023-05-12T05:20:09.735Z,101150.56
2023-05-12T05:22:40.879Z,101163.13
2023-05-12T05:25:10.332Z,101160.34
2023-05-12T05:27:39.906Z,101166.59
2023-05-12T05:30:09.232Z,101165.81
2023-05-12T05:32:40.320Z,101176.47
2023-05-12T05:35:08.967Z,101167.69
2023-05-12T05:37:40.880Z,101169.31
2023-05-12T05:40:10.306Z,101168.19
2023-05-12T05:42:40.109Z,101177.69
2023-05-12T05:45:09.447Z,101176.56
2023-05-12T05:47:37.889Z,101175.72
2023-05-12T05:50:08.856Z,101176.00
2023-05-12T05:52:39.427Z,101179.09
2023-05-12T05:55:08.696Z,101173.56
2023-05-12T05:57:37.890Z,101171.78
2023-05-12T06:00:10.003Z,101176.44
2023-05-12T06:02:51.517Z,101188.34
2023-05-12T06:05:23.777Z,101192.06
2023-05-12T06:07:52.248Z,101184.59
2023-05-12T06:10:22.762Z,101199.25
2023-05-12T06:12:51.428Z,101190.28
2023-05-12T06:15:20.989Z,101196.66
2023-05-12T06:17:50.838Z,101202.00
2023-05-12T06:20:19.019Z,101202.50
2023-05-12T06:22:47.275Z,101196.53
2023-05-12T06:25:15.531Z,101206.00
2023-05-12T06:27:43.450Z,101210.03
2023-05-12T06:30:16.006Z,101211.09
2023-05-12T06:32:46.242Z,101213.81
2023-05-12T06:35:14.181Z,101208.81
2023-05-12T06:37:44.761Z,101217.44
2023-05-12T06:40:15.726Z,101220.09
2023-05-12T06:42:43.741Z,101215.69
2023-05-12T06:45:13.003Z,101222.91
2023-05-12T06:47:45.257Z,101213.81
2023-05-12T06:50:13.348Z,101219.66
2023-05-12T06:52:41.954Z,101222.69
2023-05-12T06:55:10.682Z,101217.06
2023-05-12T06:57:38.657Z,101217.47
2023-05-12T07:00:08.197Z,101221.06
2023-05-12T07:02:36.091Z,101219.66
2023-05-12T07:05:05.771Z,101217.41
2023-05-12T07:07:33.641Z,101219.38
2023-05-12T07:10:01.734Z,101221.69
2023-05-12T07:12:29.663Z,101222.91
2023-05-12T07:14:57.573Z,101221.72
2023-05-12T07:17:25.958Z,101229.56
2023-05-12T07:19:53.995Z,101235.97
2023-05-12T07:22:24.557Z,101224.00
2023-05-12T07:24:52.773Z,101212.72
2023-05-12T07:27:21.270Z,101229.91
2023-05-12T07:29:49.462Z,101226.28
2023-05-12T07:32:17.938Z,101218.59
2023-05-12T07:34:46.183Z,101226.41
2023-05-12T07:37:14.325Z,101218.69
2023-05-12T07:39:43.768Z,101229.59
2023-05-12T07:42:11.802Z,101224.69
2023-05-12T07:44:39.884Z,101229.56
2023-05-12T07:47:08.273Z,101227.22
2023-05-12T07:49:36.322Z,101225.50
2023-05-12T07:52:04.594Z,101221.31
2023-05-12T07:54:32.747Z,101227.56
2023-05-12T07:57:02.167Z,101214.44
2023-05-12T07:59:30.047Z,101224.38
2023-05-12T08:01:58.807Z,101225.06
2023-05-12T08:04:27.207Z,101224.72
2023-05-12T08:06:55.387Z,101228.00
2023-05-12T08:09:23.525Z,101231.44
2023-05-12T08:11:53.345Z,101228.66
2023-05-12T08:14:23.139Z,101225.00
2023-05-12T08:16:51.226Z,101229.78
2023-05-12T08:19:19.346Z,101220.13
2023-05-12T08:21:47.209Z,101238.94
2023-05-12T08:24:18.007Z,101231.06
2023-05-12T08:26:47.832Z,101231.38
2023-05-12T08:29:16.177Z,101230.66
2023-05-12T08:31:45.688Z,101232.03
2023-05-12T08:34:13.754Z,101233.50
2023-05-12T08:36:42.375Z,101235.25
2023-05-12T08:39:11.271Z,101235.16
2023-05-12T08:41:45.916Z,101246.31
2023-05-12T08:44:15.272Z,101232.00
2023-05-12T08:46:45.323Z,101224.34
2023-05-12T08:49:18.000Z,101232.06
2023-05-12T08:51:57.349Z,101223.63
2023-05-12T08:54:28.551Z,101238.53
2023-05-12T08:59:29.718Z,101228.38
2023-05-12T09:02:04.508Z,101232.59
2023-05-12T09:04:33.306Z,101239.38
2023-05-12T09:07:01.704Z,101239.41
2023-05-12T09:09:32.739Z,101228.66
2023-05-12T09:12:02.974Z,101228.06
2023-05-12T09:14:36.159Z,101227.53
2023-05-12T09:17:06.804Z,101231.41
2023-05-12T09:19:37.938Z,101233.41
2023-05-12T09:22:06.135Z,101236.84
2023-05-12T09:24:37.806Z,101240.50
2023-05-12T09:27:07.102Z,101235.41
2023-05-12T09:29:42.514Z,101233.97
2023-05-12T09:32:17.793Z,101241.97
2023-05-12T09:34:46.296Z,101240.44
2023-05-12T09:37:15.683Z,101238.50
2023-05-12T09:39:45.753Z,101236.16
2023-05-12T09:42:15.019Z,101238.53
2023-05-12T09:44:43.373Z,101245.47
2023-05-12T09:47:11.518Z,101234.88
2023-05-12T09:49:49.166Z,101239.13
2023-05-12T09:52:17.684Z,101238.94
2023-05-12T09:54:45.905Z,101243.03
2023-05-12T09:57:17.300Z,101238.53
2023-05-12T09:59:47.700Z,101241.91
2023-05-12T10:02:17.114Z,101243.13
2023-05-12T10:04:53.859Z,101233.00
2023-05-12T10:07:24.040Z,101226.91
2023-05-12T10:09:52.863Z,101238.03
2023-05-12T10:12:21.098Z,101232.78
2023-05-12T10:14:50.310Z,101238.22
2023-05-12T10:17:21.171Z,101246.34
2023-05-12T10:19:52.483Z,101248.28
2023-05-12T10:22:21.261Z,101235.69
2023-05-12T10:24:50.838Z,101233.56
2023-05-12T10:27:20.397Z,101242.84
2023-05-12T10:29:50.728Z,101237.66
2023-05-12T10:32:19.651Z,101247.06
2023-05-12T10:34:48.481Z,101240.00
2023-05-12T10:37:18.732Z,101239.69
2023-05-12T10:39:54.256Z,101240.31
2023-05-12T10:42:26.270Z,101251.50
2023-05-12T10:44:55.710Z,101247.91
2023-05-12T10:47:27.085Z,101249.34
2023-05-12T10:49:59.132Z,101244.06
2023-05-12T10:52:28.880Z,101242.59
2023-05-12T10:55:02.244Z,101247.91
2023-05-12T10:57:31.381Z,101246.16
2023-05-12T11:00:02.885Z,101241.34
2023-05-12T11:02:34.464Z,101256.09
2023-05-12T11:05:06.793Z,101237.84
2023-05-12T11:07:37.808Z,101246.56
2023-05-12T11:10:08.057Z,101247.06
2023-05-12T11:12:37.533Z,101255.19
2023-05-12T11:15:08.366Z,101244.97
2023-05-12T11:17:40.662Z,101241.31
2023-05-12T11:20:10.917Z,101239.66
2023-05-12T11:22:42.977Z,101247.63
2023-05-12T11:25:12.529Z,101243.88
2023-05-12T11:27:45.021Z,101252.69
2023-05-12T11:30:13.949Z,101244.00
2023-05-12T11:32:42.253Z,101241.50
2023-05-12T11:35:12.081Z,101256.25
2023-05-12T11:37:42.486Z,101240.81
2023-05-12T11:40:17.967Z,101248.09
2023-05-12T11:42:48.864Z,101256.53
2023-05-12T11:45:22.490Z,101255.38
2023-05-12T11:47:50.892Z,101250.50
2023-05-12T11:50:24.068Z,101245.53
2023-05-12T11:52:54.670Z,101247.03
2023-05-12T11:55:26.940Z,101242.03
2023-05-12T11:58:00.427Z,101236.81
2023-05-12T12:00:30.458Z,101241.63
2023-05-12T12:03:12.790Z,101248.50
2023-05-12T12:05:42.491Z,101242.88
2023-05-12T12:08:14.427Z,101255.91
2023-05-12T12:10:45.775Z,101248.03
2023-05-12T12:13:14.271Z,101245.16
2023-05-12T12:15:42.253Z,101233.28
2023-05-12T12:18:10.242Z,101238.16
2023-05-12T12:20:38.477Z,101234.03
2023-05-12T12:23:06.668Z,101242.41
2023-05-12T12:25:37.330Z,101242.75
2023-05-12T12:28:05.952Z,101258.78
2023-05-12T12:30:34.683Z,101261.16
2023-05-12T12:33:03.005Z,101256.09
2023-05-12T12:35:34.015Z,101248.03
2023-05-12T12:38:02.390Z,101252.31
2023-05-12T12:40:31.885Z,101237.72
2023-05-12T12:43:01.207Z,101226.56
2023-05-12T12:45:29.176Z,101242.69
2023-05-12T12:47:57.544Z,101240.19
2023-05-12T12:50:27.312Z,101238.66
2023-05-12T12:52:55.526Z,101239.56
2023-05-12T12:55:24.272Z,101235.75
2023-05-12T12:57:52.679Z,101242.38
2023-05-12T13:00:24.331Z,101239.09
2023-05-12T13:02:53.082Z,101217.78
2023-05-12T13:05:21.913Z,101226.47
2023-05-12T13:07:51.539Z,101224.31
2023-05-12T13:10:20.027Z,101217.78
2023-05-12T13:12:48.365Z,101220.06
2023-05-12T13:15:19.358Z,101222.19
2023-05-12T13:17:49.466Z,101215.00
2023-05-12T13:20:17.680Z,101217.78
2023-05-12T13:22:46.373Z,101211.75
2023-05-12T13:25:14.793Z,101218.34
2023-05-12T13:27:42.954Z,101219.09
2023-05-12T13:30:13.470Z,101228.66
2023-05-12T13:32:45.202Z,101234.53
2023-05-12T13:35:14.700Z,101227.22
2023-05-12T13:37:42.896Z,101224.63
2023-05-12T13:40:11.924Z,101236.09
2023-05-12T13:42:39.919Z,101227.47
2023-05-12T13:45:09.703Z,101224.22
2023-05-12T13:47:37.861Z,101215.72
2023-05-12T13:50:07.160Z,101227.22
2023-05-12T13:52:36.674Z,101214.19
2023-05-12T13:55:05.424Z,101213.94
2023-05-12T13:57:33.940Z,101223.41
2023-05-12T14:00:03.224Z,101218.34
2023-05-12T14:02:31.447Z,101215.44
2023-05-12T14:04:59.672Z,101221.44
2023-05-12T14:07:29.089Z,101219.25
2023-05-12T14:09:58.534Z,101219.66
2023-05-12T14:12:26.894Z,101218.34
2023-05-12T14:14:59.942Z,101217.16
2023-05-12T14:17:36.795Z,101223.47
2023-05-12T14:20:06.586Z,101218.97
2023-05-12T14:22:35.439Z,101214.25
2023-05-12T14:25:06.065Z,101200.00
2023-05-12T14:27:34.756Z,101201.31
2023-05-12T14:30:06.318Z,101201.88
2023-05-12T14:32:34.795Z,101204.97
2023-05-12T14:35:04.455Z,101206.88
2023-05-12T14:37:33.245Z,101214.38
2023-05-12T14:40:01.563Z,101214.66
2023-05-12T14:42:32.316Z,101222.25
2023-05-12T14:45:01.045Z,101209.28
2023-05-12T14:47:29.142Z,101212.44
2023-05-12T14:49:57.479Z,101208.69
2023-05-12T14:52:25.492Z,101212.75
2023-05-12T14:54:53.587Z,101205.91
2023-05-12T14:57:21.711Z,101220.19
2023-05-12T14:59:53.657Z,101225.41
2023-05-12T15:02:22.872Z,101210.25
2023-05-12T15:04:51.282Z,101214.84
2023-05-12T15:07:24.026Z,101227.47
2023-05-12T15:09:52.280Z,101217.13
2023-05-12T15:12:20.620Z,101222.97
2023-05-12T15:14:48.737Z,101232.56
2023-05-12T15:17:18.309Z,101226.94
2023-05-12T15:19:46.561Z,101233.63
2023-05-12T15:22:14.929Z,101221.25
2023-05-12T15:24:44.137Z,101221.38
2023-05-12T15:27:12.225Z,101219.06
2023-05-12T15:29:40.511Z,101219.66
2023-05-12T15:32:09.171Z,101210.84
2023-05-12T15:34:39.197Z,101209.09
2023-05-12T15:37:07.274Z,101205.03
2023-05-12T15:39:35.496Z,101203.25
2023-05-12T15:42:05.512Z,101213.59
2023-05-12T15:44:35.256Z,101209.13
2023-05-12T15:47:03.416Z,101226.75
2023-05-12T15:49:31.906Z,101226.00
2023-05-12T15:52:02.590Z,101215.28
2023-05-12T15:54:31.127Z,101217.94
2023-05-12T15:56:59.309Z,101218.31
2023-05-12T15:59:27.479Z,101216.06
2023-05-12T16:01:55.398Z,101221.63
2023-05-12T16:04:24.433Z,101229.09
2023-05-12T16:06:52.428Z,101212.53
2023-05-12T16:09:21.804Z,101219.75
2023-05-12T16:11:50.528Z,101223.78
2023-05-12T16:14:19.284Z,101225.22
2023-05-12T16:16:48.398Z,101220.59
2023-05-12T16:19:16.521Z,101219.13
2023-05-12T16:21:45.517Z,101206.91
2023-05-12T16:24:13.844Z,101209.69
2023-05-12T16:26:43.704Z,101207.81
2023-05-12T16:29:12.028Z,101205.25
2023-05-12T16:31:40.276Z,101199.41
2023-05-12T16:34:08.398Z,101207.97
2023-05-12T16:36:36.318Z,101206.34
2023-05-12T16:39:04.744Z,101195.22
2023-05-12T16:41:32.719Z,101207.16
2023-05-12T16:44:02.423Z,101209.84
2023-05-12T16:46:30.602Z,101220.84
2023-05-12T16:48:58.619Z,101218.31
2023-05-12T16:51:30.560Z,101211.25
2023-05-12T16:53:58.915Z,101216.81
2023-05-12T16:56:28.140Z,101208.66
2023-05-12T16:58:56.271Z,101216.88
2023-05-12T17:01:25.716Z,101215.19
2023-05-12T17:03:55.145Z,101221.16
2023-05-12T17:06:23.270Z,101219.84
2023-05-12T17:08:51.467Z,101221.47
2023-05-12T17:11:19.786Z,101221.00
2023-05-12T17:13:48.057Z,101227.75
2023-05-12T17:16:16.113Z,101224.31
2023-05-12T17:21:17.459Z,101226.38
2023-05-12T17:23:45.874Z,101224.47
2023-05-12T17:26:16.623Z,101221.94
2023-05-12T17:28:45.066Z,101225.72
2023-05-12T17:31:13.159Z,101226.16
2023-05-12T17:33:41.400Z,101230.94
2023-05-12T17:36:13.196Z,101234.97
2023-05-12T17:38:43.548Z,101230.00
2023-05-12T17:41:11.664Z,101228.34
2023-05-12T17:43:39.737Z,101231.03
2023-05-12T17:46:08.446Z,101229.72
2023-05-12T17:48:38.418Z,101233.25
2023-05-12T17:51:07.575Z,101230.53
2023-05-12T17:53:37.661Z,101242.47
2023-05-12T17:56:06.179Z,101235.66
2023-05-12T17:58:34.342Z,101242.91
2023-05-12T18:01:03.421Z,101240.97
2023-05-12T18:03:32.078Z,101241.00
2023-05-12T18:06:00.424Z,101247.31
2023-05-12T18:08:29.767Z,101235.06
2023-05-12T18:10:59.395Z,101244.84
2023-05-12T18:13:29.053Z,101245.84
2023-05-12T18:15:57.666Z,101241.56
2023-05-12T18:18:26.542Z,101244.06
2023-05-12T18:20:54.754Z,101250.03
2023-05-12T18:23:22.789Z,101245.97
2023-05-12T18:25:51.108Z,101253.88
2023-05-12T18:28:20.692Z,101257.94
2023-05-12T18:30:49.021Z,101244.56
2023-05-12T18:33:17.098Z,101250.09
2023-05-12T18:35:45.370Z,101251.53
2023-05-12T18:38:13.326Z,101255.78
2023-05-12T18:40:42.050Z,101252.13
2023-05-12T18:43:10.229Z,101258.59
2023-05-12T18:45:39.939Z,101265.44
2023-05-12T18:48:08.298Z,101259.59
2023-05-12T18:50:36.401Z,101268.16
2023-05-12T18:53:07.025Z,101268.91
2023-05-12T18:55:35.141Z,101264.16
2023-05-12T18:58:03.918Z,101274.53
2023-05-12T19:00:33.900Z,101279.47
2023-05-12T19:03:03.553Z,101283.31
2023-05-12T19:05:31.769Z,101285.56
2023-05-12T19:08:00.384Z,101279.06
2023-05-12T19:10:29.188Z,101284.72
2023-05-12T19:12:57.623Z,101285.16
2023-05-12T19:15:25.847Z,101297.41
2023-05-12T19:17:54.085Z,101296.91
2023-05-12T19:20:24.020Z,101291.88
2023-05-12T19:22:51.932Z,101291.56
2023-05-12T19:25:20.789Z,101294.81
2023-05-12T19:27:49.088Z,101302.00
2023-05-12T19:30:17.147Z,101293.44
2023-05-12T19:32:45.993Z,101296.13
2023-05-12T19:35:15.659Z,101302.72
2023-05-12T19:37:45.339Z,101294.41
2023-05-12T19:40:13.598Z,101296.75
2023-05-12T19:42:42.624Z,101307.09
2023-05-12T19:45:11.844Z,101310.41
2023-05-12T19:47:39.897Z,101309.44
2023-05-12T19:50:09.295Z,101304.59
2023-05-12T19:52:39.322Z,101306.22
2023-05-12T19:55:09.727Z,101309.81
2023-05-12T19:57:38.250Z,101311.53
2023-05-12T20:00:08.133Z,101314.00
2023-05-12T20:02:42.449Z,101310.56
2023-05-12T20:05:11.166Z,101322.28
2023-05-12T20:07:39.097Z,101325.59
2023-05-12T20:10:09.918Z,101325.72
2023-05-12T20:12:38.170Z,101325.47
2023-05-12T20:15:06.808Z,101326.78
2023-05-12T20:17:34.688Z,101332.06
2023-05-12T20:20:04.135Z,101335.25
2023-05-12T20:22:32.177Z,101330.44
2023-05-12T20:25:04.383Z,101331.31
2023-05-12T20:27:34.038Z,101330.31
2023-05-12T20:30:02.442Z,101329.66
2023-05-12T20:32:30.946Z,101340.91
2023-05-12T20:34:58.864Z,101336.56
2023-05-12T20:37:27.341Z,101335.72
2023-05-12T20:39:55.631Z,101332.22
2023-05-12T20:42:23.708Z,101340.81
2023-05-12T20:44:53.783Z,101337.81
2023-05-12T20:47:21.889Z,101341.91
2023-05-12T20:49:50.005Z,101339.69
2023-05-12T20:52:17.841Z,101341.19
2023-05-12T20:54:45.702Z,101339.69
2023-05-12T20:57:13.670Z,101341.09
2023-05-12T20:59:41.727Z,101349.53
2023-05-12T21:02:11.098Z,101350.97
2023-05-12T21:04:39.141Z,101346.41
2023-05-12T21:07:07.402Z,101349.22
2023-05-12T21:09:35.535Z,101350.44
2023-05-12T21:12:03.420Z,101350.75
2023-05-12T21:14:31.853Z,101354.13
2023-05-12T21:16:59.842Z,101360.06
2023-05-12T21:19:29.187Z,101358.53
2023-05-12T21:21:57.092Z,101356.59
2023-05-12T21:24:24.914Z,101367.91
2023-05-12T21:26:52.769Z,101360.28
2023-05-12T21:29:20.662Z,101365.13
2023-05-12T21:31:48.594Z,101366.78
2023-05-12T21:34:16.569Z,101363.63
2023-05-12T21:36:45.990Z,101374.56
2023-05-12T21:39:13.894Z,101370.19
2023-05-12T21:41:41.747Z,101375.03
2023-05-12T21:44:11.215Z,101377.09
2023-05-12T21:46:39.510Z,101379.56
2023-05-12T21:49:07.573Z,101379.50
2023-05-12T21:51:35.535Z,101368.78
2023-05-12T21:54:05.222Z,101373.72
2023-05-12T21:56:33.091Z,101364.63
2023-05-12T21:59:01.517Z,101375.19
2023-05-12T22:01:30.795Z,101367.00
2023-05-12T22:03:59.629Z,101376.13
2023-05-12T22:06:27.476Z,101373.53
2023-05-12T22:08:55.709Z,101371.69
2023-05-12T22:11:24.967Z,101373.25
2023-05-12T22:13:52.803Z,101372.44
2023-05-12T22:16:25.742Z,101387.13
2023-05-12T22:18:57.004Z,101382.41
2023-05-12T22:21:24.960Z,101379.91
2023-05-12T22:23:52.823Z,101384.94
2023-05-12T22:26:20.696Z,101389.19
2023-05-12T22:28:49.907Z,101385.53
2023-05-12T22:31:17.948Z,101392.69
2023-05-12T22:33:45.798Z,101398.63
2023-05-12T22:36:13.690Z,101398.63
2023-05-12T22:38:41.607Z,101393.72
2023-05-12T22:41:09.426Z,101393.06
2023-05-12T22:43:37.445Z,101400.00
2023-05-12T22:46:09.418Z,101401.72
2023-05-12T22:48:39.584Z,101398.84
2023-05-12T22:51:07.906Z,101405.81
2023-05-12T22:53:36.560Z,101403.09
2023-05-12T22:56:04.913Z,101400.28
2023-05-12T22:58:32.793Z,101397.69
2023-05-12T23:01:02.188Z,101397.34
2023-05-12T23:03:32.851Z,101396.13
2023-05-12T23:06:00.890Z,101407.16
2023-05-12T23:08:28.938Z,101395.84
2023-05-12T23:10:56.784Z,101395.53
2023-05-12T23:13:24.620Z,101403.09
2023-05-12T23:15:52.554Z,101396.91
2023-05-12T23:18:20.598Z,101395.94
2023-05-12T23:20:49.844Z,101408.63
2023-05-12T23:23:17.628Z,101397.97
2023-05-12T23:25:47.174Z,101403.69
2023-05-12T23:28:14.981Z,101403.19
2023-05-12T23:30:42.949Z,101401.94
2023-05-12T23:33:11.585Z,101397.34
2023-05-12T23:35:39.473Z,101401.84
2023-05-12T23:38:08.804Z,101398.56
2023-05-12T23:40:39.120Z,101398.88
2023-05-12T23:43:07.714Z,101393.38
2023-05-12T23:45:36.025Z,101396.16
2023-05-12T23:48:03.862Z,101396.75
2023-05-12T23:50:31.860Z,101393.91
2023-05-12T23:52:59.661Z,101398.09
2023-05-12T23:55:28.966Z,101399.84
2023-05-12T23:57:57.050Z,101394.22
